This is the latest recevied weather packets stored in our database for station/object KA7RLM. If no packets are shown the sender has not sent any weather packets the latest 10 day(s).
| Time | Temp. | Humidity | Pressure | Rain* | Wind** | Luminosity | Snow |
|---|---|---|---|---|---|---|---|
| 1777598431 | 27.22° C | 29% | 1016.2 hPa | 0 mm | - | - | - |
| 1777597817 | 26.11° C | 29% | 1016.2 hPa | 0 mm | - | - | - |
| 1777596021 | 25.56° C | 33% | 1016.5 hPa | 0 mm | - | - | - |
| 1777594833 | 25.56° C | 33% | 1016.7 hPa | 0 mm | - | - | - |
| 1777594224 | 25° C | 35% | 1016.8 hPa | 0 mm | - | - | - |
| 1777592418 | 25° C | 35% | 1017 hPa | 0 mm | - | - | - |
| 1777591230 | 24.44° C | 37% | 1017.4 hPa | 0 mm | - | - | - |
| 1777587630 | 24.44° C | 43% | 1018 hPa | 0 mm | - | - | - |
| 1777587033 | 24.44° C | 45% | 1018.1 hPa | 0 mm | - | - | - |
| 1777582224 | 21.11° C | 54% | 1018.8 hPa | 0 mm | - | - | - |
| 1777576224 | 20° C | 60% | 1019.7 hPa | 0 mm | - | - | - |
| 1777571428 | 16.67° C | 70% | 1020.6 hPa | 0 mm | - | - | - |
| 1777570830 | 16.11° C | 71% | 1020.6 hPa | 0 mm | - | - | - |
| 1777567217 | 13.89° C | 78% | 1021.1 hPa | 0 mm | - | - | - |
| 1777566626 | 14.44° C | 76% | 1021.3 hPa | 0 mm | - | - | - |
| 1777564220 | 13.89° C | 77% | 1021.4 hPa | 0 mm | - | - | - |
| 1777558226 | 8.33° C | 98% | 1021.7 hPa | 0 mm | - | - | - |
| 1777551031 | 7.22° C | 97% | 1021.6 hPa | 0 mm | - | - | - |
| 1777545023 | 8.89° C | 91% | 1021.4 hPa | 0 mm | - | - | - |
| 1777543850 | 8.89° C | 90% | 1021.5 hPa | 0 mm | - | - | - |
| 1777543247 | 8.89° C | 89% | 1021.5 hPa | 0 mm | - | - | - |
| 1777536021 | 10.56° C | 82% | 1022.1 hPa | 0 mm | - | - | - |
| 1777534220 | 10.56° C | 82% | 1022.1 hPa | 0 mm | - | - | - |
| 1777532431 | 11.67° C | 79% | 1022.1 hPa | 0 mm | - | - | - |
| 1777530019 | 12.22° C | 75% | 1022.2 hPa | 0 mm | - | - | - |
* Rain latest hour (hover to see other rain measurements)
** Current wind speed in m/s (hover to see current wind gust speed)